Flight Track Log - Related Links

Times and Time Zones

All times are in EDT time to prevent confusion due to time zone crossing. See the ADB388F flight status page for this flight to view local times or setup timezone preferences in your user account.

Time Position Orientation Groundspeed Altitude Reporting Facility
EDT Latitude Longitude Course Direction KTS MPH feet Rate Location/Type
Thu 04:41:33 PM 21.3167 -157.9000 148° Southeast 150 173 800  Level Honolulu Center
Thu 04:42:33 PM 21.2667 -157.8670 148° Southeast 200 230 1,600 850 Climbing Honolulu Center
Thu 04:43:33 PM 21.2167 -157.8330 102° East 250 288 2,500 1,289 Climbing Honolulu Center
Thu 04:44:34 PM 21.2000 -157.7500 75° East 250 288 4,200 1,686 Climbing Honolulu Center
Thu 04:45:34 PM 21.2167 -157.6830 90° East 260 299 5,900 1,650 Climbing Honolulu Center
Thu 04:46:34 PM 21.2167 -157.6000 78° East 270 311 7,500 1,537 Climbing Honolulu Center
Thu 04:47:35 PM 21.2333 -157.5170 78° East 270 311 9,000 1,190 Climbing Honolulu Center
Thu 04:48:35 PM 21.2500 -157.4330 90° East 290 334 9,900 1,100 Climbing Honolulu Center
Thu 04:49:35 PM 21.2500 -157.3500 80° East 310 357 11,200 1,240 Climbing Honolulu Center
Thu 04:50:36 PM 21.2667 -157.2500 90° East 310 357 12,400 1,091 Climbing Honolulu Center
Thu 04:51:36 PM 21.2667 -157.1500 78° East 320 368 13,400 1,100 Climbing Honolulu Center
Thu 04:52:36 PM 21.2833 -157.0670 80° East 330 380 14,600 1,041 Climbing Honolulu Center
Thu 04:53:37 PM 21.3000 -156.9670 80° East 330 380 15,500 992 Climbing Honolulu Center
Thu 04:54:37 PM 21.3167 -156.8670 90° East 340 391 16,600 1,000 Climbing Honolulu Center
Thu 04:55:37 PM 21.3167 -156.7670 81° East 340 391 17,500 942 Climbing Honolulu Center
Thu 04:56:38 PM 21.3333 -156.6500 80° East 350 403 18,500 893 Climbing Honolulu Center
Thu 04:57:38 PM 21.3500 -156.5500 90° East 360 414 19,300 800 Climbing Honolulu Center
Thu 04:58:38 PM 21.3500 -156.4330 80° East 360 414 20,100 843 Climbing Honolulu Center
Thu 04:59:39 PM 21.3667 -156.3330 81° East 370 426 21,000 843 Climbing Honolulu Center
Thu 05:00:39 PM 21.3833 -156.2170 90° East 370 426 21,800 800 Climbing Honolulu Center
Thu 05:01:39 PM 21.3833 -156.1170 81° East 370 426 22,600 744 Climbing Honolulu Center
Thu 05:02:40 PM 21.4000 -156.0000 80° East 380 437 23,300 689 Climbing Honolulu Center
Thu 05:03:41 PM 21.4167 -155.9000 81° East 390 449 24,000 645 Climbing Honolulu Center
Thu 05:04:41 PM 21.4333 -155.7830 90° East 390 449 24,600 700 Climbing Honolulu Center
Thu 05:05:41 PM 21.4333 -155.6670 81° East 390 449 25,400 744 Climbing Honolulu Center
Thu 05:06:42 PM 21.4500 -155.5500 81° East 390 449 26,100 600 Climbing Honolulu Center
Thu 05:07:41 PM 21.4667 -155.4330 81° East 390 449 26,600 550 Climbing Honolulu Center
Thu 05:08:42 PM 21.4833 -155.3170 90° East 400 460 27,200 595 Climbing Honolulu Center
Thu 05:09:42 PM 21.4833 -155.2000 81° East 400 460 27,800 595 Climbing Honolulu Center
Thu 05:10:43 PM 21.5000 -155.0830 81° East 400 460 28,400 496 Climbing Honolulu Center
Thu 05:11:43 PM 21.5167 -154.9670 82° East 410 472 28,800 450 Climbing Honolulu Center
Thu 05:12:43 PM 21.5333 -154.8330 90° East 410 472 29,300 446 Climbing Honolulu Center
Thu 05:13:44 PM 21.5333 -154.7170 81° East 410 472 29,700 397 Climbing Honolulu Center
Thu 05:14:44 PM 21.5500 -154.6000 82° East 420 483 30,100 450 Climbing Honolulu Center
Thu 05:15:44 PM 21.5667 -154.4670 81° East 420 483 30,600 446 Climbing Honolulu Center
Thu 05:16:45 PM 21.5833 -154.3500 83° East 420 483 31,000 446 Climbing Honolulu Center
Thu 05:17:45 PM 21.6000 -154.2000 82° East 420 483 31,500 450 Climbing Honolulu Center
Thu 05:18:45 PM 21.6167 -154.0670 81° East 420 483 31,900 446 Climbing Honolulu Center
Thu 05:19:46 PM 21.6333 -153.9500 90° East 420 483 32,400 397 Climbing Honolulu Center
Thu 05:20:46 PM 21.6333 -153.8170 82° East 420 483 32,700 347 Climbing Honolulu Center
Thu 05:21:47 PM 21.6500 -153.6830 81° East 430 495 33,100 397 Climbing Honolulu Center
Thu 05:22:47 PM 21.6667 -153.5670 82° East 430 495 33,500 397 Climbing Honolulu Center
Thu 05:23:48 PM 21.6833 -153.4330 81° East 430 495 33,900 347 Climbing Honolulu Center
Thu 05:24:48 PM 21.7000 -153.3170 82° East 430 495 34,200 300 Climbing Honolulu Center
Thu 05:25:48 PM 21.7167 -153.1830 82° East 430 495 34,500 397 Climbing Honolulu Center
Thu 05:26:49 PM 21.7333 -153.0500 54° Northeast 450 518 35,000 248 Climbing Honolulu Center
Thu 05:27:49 PM 21.8000 -152.9500 61° Northeast 430 495 35,000  Level Honolulu Center
Thu 05:37:41 PM 22.3500 -151.8830 62° Northeast 427 491 35,000  Level Oakland Oceanic (ODAPS)
Thu 06:31:54 PM 25.2833 -145.5170 65° Northeast 488 562 35,000  Level Oakland Oceanic (ODAPS)
Thu 07:14:41 PM 27.9167 -138.8500 68° East 506 582 35,000  Level Oakland Oceanic (ODAPS)
Thu 08:03:42 PM 30.2833 -131.6330 71° East 485 558 35,000  Level Oakland Oceanic (ODAPS)
Thu 08:54:17 PM 32.2428 -124.1000 82° East 35,000  Level Los Angeles Center
Thu 08:55:17 PM 32.2661 -123.8980 76° East 435 501 35,000  Level Los Angeles Center
Thu 08:56:17 PM 32.2964 -123.7510 75° East 450 518 35,000  Level Los Angeles Center
Thu 08:57:17 PM 32.3283 -123.6060 75° East 456 525 35,000  Level Los Angeles Center
Thu 08:58:17 PM 32.3600 -123.4610 76° East 456 525 35,000  Level Los Angeles Center
Thu 08:59:17 PM 32.3894 -123.3160 76° East 456 525 35,000  Level Los Angeles Center
Thu 09:00:17 PM 32.4211 -123.1690 76° East 456 525 35,000  Level Los Angeles Center
Thu 09:01:17 PM 32.4525 -123.0210 75° East 461 531 35,000  Level Los Angeles Center
Thu 09:02:17 PM 32.4856 -122.8760 75° East 461 531 35,000  Level Los Angeles Center
Thu 09:03:17 PM 32.5186 -122.7310 76° East 461 531 35,000  Level Los Angeles Center
Thu 09:04:17 PM 32.5497 -122.5810 76° East 461 531 35,000  Level Los Angeles Center
Thu 09:05:17 PM 32.5803 -122.4350 75° East 461 531 35,000  Level Los Angeles Center
Thu 09:06:17 PM 32.6128 -122.2870 75° East 461 531 35,000  Level Los Angeles Center
Thu 09:07:17 PM 32.6453 -122.1410 75° East 461 531 35,000  Level Los Angeles Center
Thu 09:08:17 PM 32.6772 -121.9960 75° East 461 531 35,000  Level Los Angeles Center
Thu 09:09:17 PM 32.7092 -121.8500 77° East 461 531 35,000  Level Los Angeles Center
Thu 09:10:17 PM 32.7369 -121.7010 75° East 461 531 35,000  Level Los Angeles Center
Thu 09:11:17 PM 32.7686 -121.5550 75° East 461 531 35,000  Level Los Angeles Center
Thu 09:12:17 PM 32.8003 -121.4090 78° East 456 525 35,000  Level Los Angeles Center
Thu 09:13:17 PM 32.8275 -121.2570 78° East 462 532 35,000  Level Los Angeles Center
Thu 09:14:17 PM 32.8544 -121.1080 77° East 462 532 35,000  Level Los Angeles Center
Thu 09:15:17 PM 32.8836 -120.9590 77° East 462 532 35,000  Level Los Angeles Center
Thu 09:16:17 PM 32.9122 -120.8140 77° East 462 532 35,000  Level Los Angeles Center
Thu 09:17:17 PM 32.9406 -120.6700 77° East 462 532 35,000  Level Los Angeles Center
Thu 09:18:17 PM 32.9686 -120.5280 77° East 457 526 35,000  Level Los Angeles Center
Thu 09:19:17 PM 32.9969 -120.3810 78° East 452 520 35,000  Level Los Angeles Center
Thu 09:20:17 PM 33.0228 -120.2360 77° East 447 514 35,000  Level Los Angeles Center
Thu 09:21:17 PM 33.0481 -120.1030 78° East 447 514 35,000  Level Los Angeles Center
Thu 09:22:17 PM 33.0761 -119.9460 77° East 447 514 35,000  Level Los Angeles Center
Thu 09:23:17 PM 33.1033 -119.8010 76° East 447 514 35,000  Level Los Angeles Center
Thu 09:24:17 PM 33.1328 -119.6580 77° East 447 514 35,000  Level Los Angeles Center
Thu 09:25:17 PM 33.1572 -119.5280 78° East 452 520 35,000  Level Los Angeles Center
Thu 09:26:17 PM 33.1842 -119.3820 78° East 452 520 35,000  Level Los Angeles Center
Thu 09:27:17 PM 33.2108 -119.2370 77° East 447 514 35,000  Level Los Angeles Center
Thu 09:28:17 PM 33.2397 -119.0910 78° East 447 514 35,000  Level Los Angeles Center
Thu 09:29:17 PM 33.2658 -118.9480 77° East 447 514 35,000  Level Los Angeles Center
Thu 09:30:17 PM 33.2942 -118.8020 78° East 447 514 35,000  Level Los Angeles Center
Thu 09:31:17 PM 33.3203 -118.6570 78° East 447 514 35,000  Level Los Angeles Center
Thu 09:32:17 PM 33.3461 -118.5130 79° East 447 514 35,000  Level Los Angeles Center
Thu 09:33:17 PM 33.3700 -118.3650 85° East 447 514 35,000  Level Los Angeles Center
Thu 09:34:17 PM 33.3808 -118.2160 85° East 447 514 35,000  Level Los Angeles Center
Thu 09:35:17 PM 33.3917 -118.0640 84° East 447 514 35,000  Level Los Angeles Center
Thu 09:36:17 PM 33.4044 -117.9180 85° East 442 509 35,000  Level Los Angeles Center
Thu 09:37:17 PM 33.4172 -117.7540 84° East 442 509 35,000  Level Los Angeles Center
Thu 09:38:17 PM 33.4294 -117.6050 84° East 442 509 35,000  Level Los Angeles Center
Thu 09:39:17 PM 33.4417 -117.4560 85° East 442 509 35,000  Level Los Angeles Center
Thu 09:40:17 PM 33.4536 -117.3060 86° East 442 509 35,000  Level Los Angeles Center
Thu 09:41:17 PM 33.4611 -117.1870 85° East 442 509 35,000  Level Los Angeles Center
Thu 09:42:17 PM 33.4750 -117.0080 85° East 442 509 35,000  Level Los Angeles Center
Thu 09:43:17 PM 33.4864 -116.8580 85° East 447 514 35,000  Level Los Angeles Center
Thu 09:44:17 PM 33.4978 -116.7120 86° East 447 514 35,000  Level Los Angeles Center
Thu 09:45:17 PM 33.5067 -116.5570 86° East 447 514 35,000  Level Los Angeles Center
Thu 09:46:17 PM 33.5156 -116.4050 85° East 447 514 35,000  Level Los Angeles Center
Thu 09:47:17 PM 33.5261 -116.2560 86° East 452 520 35,000  Level Los Angeles Center
Thu 09:48:17 PM 33.5347 -116.1010 86° East 452 520 35,000  Level Los Angeles Center
Thu 09:49:17 PM 33.5428 -115.9490 86° East 457 526 35,000  Level Los Angeles Center
Thu 09:50:17 PM 33.5508 -115.8000 86° East 457 526 35,000  Level Los Angeles Center
Thu 09:51:17 PM 33.5586 -115.6500 86° East 457 526 35,000  Level Los Angeles Center
Thu 09:52:17 PM 33.5664 -115.5010 87° East 457 526 35,000  Level Los Angeles Center
Thu 09:53:17 PM 33.5739 -115.3480 88° East 452 520 35,000  Level Los Angeles Center
Thu 09:54:17 PM 33.5792 -115.1960 86° East 452 520 35,000  Level Los Angeles Center
Thu 09:55:17 PM 33.5883 -115.0440 87° East 452 520 35,000  Level Los Angeles Center
Thu 09:56:17 PM 33.5953 -114.8940 88° East 452 520 35,000  Level Los Angeles Center
Thu 09:57:17 PM 33.6000 -114.7470 97° East 452 520 35,000  Level Los Angeles Center
Thu 09:58:19 PM 33.5856 -114.5990 95° East 452 520 35,000  Level Albuquerque Center
Thu 09:59:19 PM 33.5739 -114.4460 97° East 452 520 35,000  Level Albuquerque Center
Thu 10:00:19 PM 33.5597 -114.2980 95° East 452 520 35,000  Level Albuquerque Center
Thu 10:01:19 PM 33.5475 -114.1450 97° East 452 520 35,000  Level Albuquerque Center
Thu 10:02:19 PM 33.5331 -113.9970 98° East 452 520 35,000  Level Albuquerque Center
Thu 10:03:19 PM 33.5161 -113.8460 94° East 452 520 35,000  Level Albuquerque Center
Thu 10:04:19 PM 33.5081 -113.7240 98° East 452 520 35,000  Level Albuquerque Center
Thu 10:05:19 PM 33.4897 -113.5600 98° East 446 513 35,000  Level Albuquerque Center
Thu 10:06:19 PM 33.4722 -113.4120 102° East 451 519 35,000  Level Albuquerque Center
Thu 10:07:19 PM 33.4442 -113.2610 102° East 451 519 35,000  Level Albuquerque Center
Thu 10:08:19 PM 33.4181 -113.1120 106° East 457 526 35,000  Level Albuquerque Center
Thu 10:09:19 PM 33.3833 -112.9660 102° East 457 526 35,000  Level Albuquerque Center
Thu 10:10:19 PM 33.3617 -112.8480 104° East 457 526 35,000  Level Albuquerque Center
Thu 10:11:19 PM 33.3239 -112.6690 105° East 463 533 35,000  Level Albuquerque Center
Thu 10:12:19 PM 33.2908 -112.5200 104° East 463 533 35,000  Level Albuquerque Center
Thu 10:13:19 PM 33.2594 -112.3720 104° East 463 533 35,000  Level Albuquerque Center
Thu 10:14:19 PM 33.2264 -112.2110 104° East 463 533 35,000  Level Albuquerque Center
Thu 10:15:19 PM 33.1947 -112.0620 105° East 463 533 35,000  Level Albuquerque Center
Thu 10:16:19 PM 33.1631 -111.9170 106° East 458 527 35,000  Level Albuquerque Center
Thu 10:17:19 PM 33.1267 -111.7690 105° East 458 527 35,000  Level Albuquerque Center
Thu 10:18:19 PM 33.0925 -111.6210 107° East 463 533 35,000  Level Albuquerque Center
Thu 10:19:19 PM 33.0558 -111.4780 107° East 458 527 35,000  Level Albuquerque Center
Thu 10:20:19 PM 33.0189 -111.3300 106° East 464 534 35,000  Level Albuquerque Center
Thu 10:21:19 PM 32.9842 -111.1850 107° East 464 534 35,000  Level Albuquerque Center
Thu 10:22:19 PM 32.9469 -111.0370 106° East 464 534 35,000  Level Albuquerque Center
Thu 10:23:19 PM 32.9119 -110.8900 107° East 464 534 35,000  Level Albuquerque Center
Thu 10:24:19 PM 32.8744 -110.7400 105° East 466 536 35,000  Level Albuquerque Center
Thu 10:25:19 PM 32.8428 -110.6000 104° East 460 529 35,000  Level Albuquerque Center
Thu 10:26:19 PM 32.8111 -110.4530 104° East 460 529 35,000  Level Albuquerque Center
Thu 10:27:19 PM 32.7794 -110.3040 105° East 460 529 35,000  Level Albuquerque Center
Thu 10:28:19 PM 32.7456 -110.1550 104° East 460 529 35,000  Level Albuquerque Center
Thu 10:29:19 PM 32.7156 -110.0080 106° East 460 529 35,000  Level Albuquerque Center
Thu 10:30:19 PM 32.6792 -109.8620 104° East 460 529 35,000  Level Albuquerque Center
Thu 10:31:19 PM 32.6467 -109.7130 105° East 460 529 35,000  Level Albuquerque Center
Thu 10:32:19 PM 32.6139 -109.5660 106° East 460 529 35,000  Level Albuquerque Center
Thu 10:33:19 PM 32.5789 -109.4200 104° East 460 529 35,000  Level Albuquerque Center
Thu 10:34:19 PM 32.5500 -109.2870 107° East 460 529 35,000  Level Albuquerque Center
Thu 10:35:19 PM 32.5125 -109.1380 105° East 460 529 35,000  Level Albuquerque Center
Thu 10:36:19 PM 32.4792 -108.9920 106° East 460 529 35,000  Level Albuquerque Center
Thu 10:37:19 PM 32.4436 -108.8460 105° East 460 529 35,000  Level Albuquerque Center
Thu 10:38:19 PM 32.4097 -108.6980 105° East 460 529 35,000  Level Albuquerque Center
Thu 10:39:19 PM 32.3758 -108.5530 105° East 460 529 35,000  Level Albuquerque Center
Thu 10:40:19 PM 32.3419 -108.4080 105° East 460 529 35,000  Level Albuquerque Center
Thu 10:41:19 PM 32.3075 -108.2600 106° East 460 529 35,000  Level Albuquerque Center
Thu 10:42:19 PM 32.2711 -108.1140 106° East 460 529 35,000  Level Albuquerque Center
Thu 10:43:19 PM 32.2364 -107.9670 107° East 460 529 35,000  Level Albuquerque Center
Thu 10:44:19 PM 32.1994 -107.8200 106° East 460 529 35,000  Level Albuquerque Center
Thu 10:45:19 PM 32.1625 -107.6730 106° East 460 529 35,000  Level Albuquerque Center
Thu 10:46:19 PM 32.1272 -107.5250 106° East 460 529 35,000  Level Albuquerque Center
Thu 10:47:19 PM 32.0900 -107.3760 107° East 465 535 35,000  Level Albuquerque Center
Thu 10:48:19 PM 32.0481 -107.2140 106° East 465 535 35,000  Level Albuquerque Center
Thu 10:49:19 PM 32.0125 -107.0720 108° East 465 535 35,000  Level Albuquerque Center
Thu 10:50:19 PM 31.9744 -106.9310 104° East 465 535 35,000  Level Albuquerque Center
Thu 10:51:19 PM 31.9406 -106.7690 107° East 464 534 35,000  Level Albuquerque Center
Thu 10:52:19 PM 31.9019 -106.6230 105° East 475 547 35,000  Level Albuquerque Center
Thu 10:53:19 PM 31.8719 -106.4910 107° East 475 547 35,000  Level Albuquerque Center
Thu 10:54:19 PM 31.8356 -106.3480 107° East 470 541 35,000  Level Albuquerque Center
Thu 10:55:19 PM 31.7967 -106.1990 107° East 470 541 35,000  Level Albuquerque Center
Thu 10:56:19 PM 31.7575 -106.0510 106° East 470 541 35,000  Level Albuquerque Center
Thu 10:57:19 PM 31.7203 -105.9020 108° East 475 547 35,000  Level Albuquerque Center
Thu 10:58:19 PM 31.6808 -105.7570 107° East 475 547 35,000  Level Albuquerque Center
Thu 10:59:19 PM 31.6433 -105.6090 106° East 475 547 35,000  Level Albuquerque Center
Thu 11:00:19 PM 31.6058 -105.4590 106° East 480 552 35,000  Level Albuquerque Center
Thu 11:01:19 PM 31.5656 -105.2990 107° East 480 552 35,000  Level Albuquerque Center
Thu 11:02:19 PM 31.5275 -105.1490 107° East 475 547 35,000  Level Albuquerque Center
Thu 11:03:19 PM 31.4892 -104.9990 106° East 475 547 35,000  Level Albuquerque Center
Thu 11:04:19 PM 31.4528 -104.8490 107° East 475 547 35,000  Level Albuquerque Center
Thu 11:05:19 PM 31.4142 -104.7000 106° East 475 547 35,000  Level Albuquerque Center
Thu 11:06:19 PM 31.3775 -104.5500 108° East 475 547 35,000  Level Albuquerque Center
Thu 11:07:19 PM 31.3361 -104.3990 107° East 475 547 35,000  Level Albuquerque Center
Thu 11:08:19 PM 31.2969 -104.2490 107° East 475 547 35,000  Level Albuquerque Center
Thu 11:09:19 PM 31.2575 -104.0980 107° East 480 552 35,000  Level Albuquerque Center
Thu 11:10:19 PM 31.2181 -103.9490 108° East 480 552 35,000  Level Albuquerque Center
Thu 11:11:19 PM 31.1783 -103.8030 107° East 473 544 35,000  Level Albuquerque Center
Thu 11:12:19 PM 31.1383 -103.6540 107° East 473 544 35,000  Level Albuquerque Center
Thu 11:13:19 PM 31.0983 -103.5030 107° East 473 544 35,000  Level Albuquerque Center
Thu 11:14:19 PM 31.0600 -103.3550 109° East 473 544 35,000  Level Albuquerque Center
Thu 11:15:19 PM 31.0153 -103.2040 107° East 479 551 35,000  Level Albuquerque Center
Thu 11:16:19 PM 30.9761 -103.0540 107° East 479 551 35,000  Level Houston Center
Thu 11:17:20 PM 30.9367 -102.9050 107° East 484 557 35,000  Level Houston Center
Thu 11:18:20 PM 30.8969 -102.7560 107° East 484 557 35,000  Level Houston Center
Thu 11:19:20 PM 30.8575 -102.6020 106° East 484 557 35,000  Level Houston Center
Thu 11:20:19 PM 30.8200 -102.4510 107° East 489 563 35,000  Level Houston Center
Thu 11:21:20 PM 30.7800 -102.2970 107° East 494 568 35,000  Level Houston Center
Thu 11:22:19 PM 30.7400 -102.1460 106° East 494 568 35,000  Level Houston Center
Thu 11:23:20 PM 30.7047 -102.0070 107° East 494 568 35,000  Level Houston Center
Thu 11:24:20 PM 30.6644 -101.8530 107° East 499 574 35,000  Level Houston Center
Thu 11:25:19 PM 30.6258 -101.7020 106° East 499 574 35,000  Level Houston Center
Thu 11:26:20 PM 30.5839 -101.5370 107° East 499 574 35,000  Level Houston Center
Thu 11:27:19 PM 30.5431 -101.3840 107° East 499 574 35,000  Level Houston Center
Thu 11:28:19 PM 30.5036 -101.2360 108° East 494 568 35,000  Level Houston Center
Thu 11:29:19 PM 30.4603 -101.0820 108° East 494 568 35,000  Level Houston Center
Thu 11:30:20 PM 30.4186 -100.9300 108° East 499 574 35,000  Level Houston Center
Thu 11:31:19 PM 30.3750 -100.7770 108° East 499 574 35,000  Level Houston Center
Thu 11:32:20 PM 30.3344 -100.6360 107° East 507 583 35,000  Level Houston Center
Thu 11:33:20 PM 30.2942 -100.4860 108° East 507 583 35,000  Level Houston Center
Thu 11:34:19 PM 30.2519 -100.3340 108° East 501 577 35,000  Level Houston Center
Thu 11:35:20 PM 30.2094 -100.1810 109° East 501 577 35,000  Level Houston Center
Thu 11:36:19 PM 30.1644 -100.0340 109° East 501 577 35,000  Level Houston Center
Thu 11:37:19 PM 30.1197 -99.8836 108° East 496 571 35,000  Level Houston Center
Thu 11:38:20 PM 30.0767 -99.7317 109° East 496 571 35,000  Level Houston Center
Thu 11:39:19 PM 30.0314 -99.5819 109° East 496 571 35,000  Level Houston Center
Thu 11:40:20 PM 29.9861 -99.4275 109° East 496 571 35,000  Level Houston Center
Thu 11:41:20 PM 29.9422 -99.2783 102° East 496 571 35,000  Level Houston Center
Thu 11:42:19 PM 29.9133 -99.1231 96° East 496 571 35,000  Level Houston Center
Thu 11:43:20 PM 29.8992 -98.9639 94° East 496 571 35,000  Level Houston Center
Thu 11:44:19 PM 29.8889 -98.8053 97° East 496 571 35,000  Level Houston Center
Thu 11:45:20 PM 29.8719 -98.6486 94° East 496 571 35,000  Level Houston Center
Thu 11:46:19 PM 29.8614 -98.4900 95° East 496 571 35,000  Level Houston Center
Thu 11:47:20 PM 29.8483 -98.3336 95° East 496 571 35,000  Level Houston Center
Thu 11:48:19 PM 29.8350 -98.1747 106° East 496 571 35,000  Level Houston Center
Thu 11:49:19 PM 29.7964 -98.0217 112° Southeast 496 571 35,000  Level Houston Center
Thu 11:50:19 PM 29.7450 -97.8728 111° Southeast 489 563 35,000 -400 Level Houston Center
Thu 11:51:19 PM 29.6972 -97.7289 108° East 489 563 34,200 -950 Descending Houston Center
Thu 11:52:19 PM 29.6558 -97.5808 113° Southeast 484 557 33,100 -1,450 Descending Houston Center
Thu 11:53:19 PM 29.6056 -97.4417 112° Southeast 477 549 31,300 -1,950 Descending Houston Center
Thu 11:54:19 PM 29.5569 -97.3031 112° Southeast 471 542 29,200 -2,033 Descending Houston Center
Thu 11:55:20 PM 29.5103 -97.1694 110° East 458 527 27,200 -1,934 Descending Houston Center
Thu 11:56:20 PM 29.4694 -97.0408 83° East 445 512 25,300 -1,916 Descending Houston Center
Thu 11:57:19 PM 29.4831 -96.9081 78° East 419 482 23,400 -2,218 Descending Houston Center
Thu 11:58:19 PM 29.5067 -96.7803 78° East 407 468 20,900 -6,700 Descending Houston Center
Thu 11:59:19 PM 29.5306 -96.6478 77° East 401 461 10,000 -1,950 Descending Houston Center
Fri 12:00:19 AM 29.5556 -96.5272 79° East 389 448 17,000 2,350 Climbing Houston Center
Fri 12:01:19 AM 29.5742 -96.4183 74° East 368 423 14,700 -2,121 Descending Houston Center
Fri 12:02:15 AM 29.5983 -96.3217 76° East 353 406 12,900 -1,550 Descending Houston Center
Fri 12:03:19 AM 29.6233 -96.2033 76° East 343 395 11,600 -1,056 Descending Houston Center
Fri 12:04:20 AM 29.6453 -96.1039 76° East 332 382 10,700 -947 Descending Houston Center
Fri 12:04:35 AM 29.6503 -96.0803 74° East 305 351 10,400 -712 Descending Houston Center
Fri 12:05:19 AM 29.6669 -96.0117 70° East 310 357 10,000 -393 Descending Houston Center
Fri 12:05:36 AM 29.6742 -95.9881 76° East 300 345 10,000 100 Level Houston Center
Fri 12:06:19 AM 29.6886 -95.9217 75° East 299 344 10,100 -583 Climbing Houston Center
Fri 12:07:19 AM 29.7103 -95.8294 67° East 299 344 9,000 -1,400 Descending Houston Center
Fri 12:08:19 AM 29.7422 -95.7444 47° Northeast 294 338 7,300 -1,400 Descending Houston Center
Fri 12:09:19 AM 29.7964 -95.6772 57° Northeast 280 322 6,200 -600 Descending Houston Center
Fri 12:10:19 AM 29.8336 -95.6117 60° Northeast 274 315 6,100 -50 Descending Houston Center
Fri 12:11:20 AM 29.8669 -95.5458 62° Northeast 249 287 6,100  Level Houston Center
Fri 12:12:19 AM 29.8958 -95.4822 57° Northeast 223 257 6,100 74 Level Houston Center
Fri 12:12:41 AM 29.9114 -95.4542 81° East 222 255 6,200 100 Climbing Houston Center
Fri 12:13:19 AM 29.9167 -95.4161 93° East 218 251 6,200 -197 Level Houston Center
Fri 12:13:42 AM 29.9153 -95.3825 88° East 235 270 6,000 -200 Descending Houston Center
Fri 12:14:19 AM 29.9167 -95.3394 88° East 225 259 6,000  Level Houston Center
Fri 12:14:42 AM 29.9175 -95.3083 88° East 228 262 6,000 100 Level Houston Center
Fri 12:15:19 AM 29.9186 -95.2603 93° East 225 259 6,100 98 Climbing Houston Center
Fri 12:15:43 AM 29.9172 -95.2317 94° East 234 269 6,100 -100 Level Houston Center
Fri 12:16:19 AM 29.9144 -95.1836 93° East 231 266 6,000  Descending Houston Center
Fri 12:16:44 AM 29.9131 -95.1572 92° East 235 270 6,100 -750 Climbing Houston Center
Fri 12:17:39 AM 29.9106 -95.0875 92° East 230 265 5,000 -522 Descending Houston Center
Fri 12:18:39 AM 29.9081 -95.0206 40° Northeast 212 244 5,100 -417 Climbing Houston Center
Fri 12:19:34 AM 29.9422 -94.9881 312° West 197 227 4,200 -493 Descending Houston Center
Fri 12:20:53 AM 29.9847 -95.0422 277° West 178 205 4,000 -41 Descending Houston Center
Fri 12:21:59 AM 29.9917 -95.1047 268° West 163 188 4,100 -365 Climbing Houston Center
Fri 12:22:48 AM 29.9906 -95.1453 273° West 162 186 3,300 -984 Descending Houston Center
Fri 12:24:01 AM 29.9931 -95.2056 269° West 151 174 2,100 -850 Descending Houston Center
Fri 12:24:55 AM 29.9922 -95.2461 268° West 136 157 1,500 -678 Descending Houston Center
Fri 12:25:56 AM 29.9908 -95.2892 268° West 133 153 800 -689 Descending Houston Center

Login

Don't have an account? Register now (free) for customized features, flight alerts, and more!